<?xml version="1.0" encoding="UTF-8" standalone="no" ?>
<gpx xmlns="http://www.topografix.com/GPX/1/1" xmlns:xsi="http://www.w3.org/2001/XMLSchema-instance" xsi:schemaLocation="http://www.topografix.com/GPX/1/1 http://www.topografix.com/GPX/1/1/gpx.xsd" version="1.1" creator="VisuGPX - https://www.visugpx.com">
  <metadata>
    <name>13504268-ADEPS SPS 12092021 - 5 km</name>
  </metadata>
  <trk>
    <name><![CDATA[13504268-ADEPS SPS 12092021]]></name>
    <trkseg>
      <trkpt lat="50.58608" lon="4.07019">
        <ele>77</ele>
        <time>2021-08-05T13:48:09Z</time>
      </trkpt>
      <trkpt lat="50.58562" lon="4.07029">
        <ele>77</ele>
        <time>2021-08-05T13:48:46Z</time>
      </trkpt>
      <trkpt lat="50.58506" lon="4.07038">
        <ele>77</ele>
        <time>2021-08-05T13:49:31Z</time>
      </trkpt>
      <trkpt lat="50.58491" lon="4.0704">
        <ele>78</ele>
        <time>2021-08-05T13:49:43Z</time>
      </trkpt>
      <trkpt lat="50.58416" lon="4.07045">
        <ele>78</ele>
        <time>2021-08-05T13:50:43Z</time>
      </trkpt>
      <trkpt lat="50.58402" lon="4.0705">
        <ele>78</ele>
        <time>2021-08-05T13:50:55Z</time>
      </trkpt>
      <trkpt lat="50.58386" lon="4.07062">
        <ele>78</ele>
        <time>2021-08-05T13:51:09Z</time>
      </trkpt>
      <trkpt lat="50.58345" lon="4.07086">
        <ele>80</ele>
        <time>2021-08-05T13:51:44Z</time>
      </trkpt>
      <trkpt lat="50.58289" lon="4.0711">
        <ele>81</ele>
        <time>2021-08-05T13:52:31Z</time>
      </trkpt>
      <trkpt lat="50.58261" lon="4.07121">
        <ele>81</ele>
        <time>2021-08-05T13:52:54Z</time>
      </trkpt>
      <trkpt lat="50.58232" lon="4.07134">
        <ele>81</ele>
        <time>2021-08-05T13:53:18Z</time>
      </trkpt>
      <trkpt lat="50.58206" lon="4.07129">
        <ele>82</ele>
        <time>2021-08-05T13:53:39Z</time>
      </trkpt>
      <trkpt lat="50.58199" lon="4.0713">
        <ele>82</ele>
        <time>2021-08-05T13:53:44Z</time>
      </trkpt>
      <trkpt lat="50.58196" lon="4.07135">
        <ele>82</ele>
        <time>2021-08-05T13:53:48Z</time>
      </trkpt>
      <trkpt lat="50.58126" lon="4.07262">
        <ele>87</ele>
        <time>2021-08-05T13:55:13Z</time>
      </trkpt>
      <trkpt lat="50.58085" lon="4.07323">
        <ele>88</ele>
        <time>2021-08-05T13:55:59Z</time>
      </trkpt>
      <trkpt lat="50.58057" lon="4.07358">
        <ele>88</ele>
        <time>2021-08-05T13:56:27Z</time>
      </trkpt>
      <trkpt lat="50.57997" lon="4.07406">
        <ele>88</ele>
        <time>2021-08-05T13:57:21Z</time>
      </trkpt>
      <trkpt lat="50.58009" lon="4.07477">
        <ele>89</ele>
        <time>2021-08-05T13:57:58Z</time>
      </trkpt>
      <trkpt lat="50.58008" lon="4.07488">
        <ele>90</ele>
        <time>2021-08-05T13:58:04Z</time>
      </trkpt>
      <trkpt lat="50.58006" lon="4.07495">
        <ele>90</ele>
        <time>2021-08-05T13:58:08Z</time>
      </trkpt>
      <trkpt lat="50.58015" lon="4.07505">
        <ele>90</ele>
        <time>2021-08-05T13:58:17Z</time>
      </trkpt>
      <trkpt lat="50.58003" lon="4.0754">
        <ele>91</ele>
        <time>2021-08-05T13:58:37Z</time>
      </trkpt>
      <trkpt lat="50.58001" lon="4.07552">
        <ele>91</ele>
        <time>2021-08-05T13:58:43Z</time>
      </trkpt>
      <trkpt lat="50.5799" lon="4.07685">
        <ele>93</ele>
        <time>2021-08-05T13:59:52Z</time>
      </trkpt>
      <trkpt lat="50.57974" lon="4.07798">
        <ele>93</ele>
        <time>2021-08-05T14:00:50Z</time>
      </trkpt>
      <trkpt lat="50.57951" lon="4.07851">
        <ele>91</ele>
        <time>2021-08-05T14:01:23Z</time>
      </trkpt>
      <trkpt lat="50.57944" lon="4.07867">
        <ele>91</ele>
        <time>2021-08-05T14:01:33Z</time>
      </trkpt>
      <trkpt lat="50.57936" lon="4.0789">
        <ele>90</ele>
        <time>2021-08-05T14:01:46Z</time>
      </trkpt>
      <trkpt lat="50.58031" lon="4.07996">
        <ele>94</ele>
        <time>2021-08-05T14:03:19Z</time>
      </trkpt>
      <trkpt lat="50.58072" lon="4.08042">
        <ele>95</ele>
        <time>2021-08-05T14:04:00Z</time>
      </trkpt>
      <trkpt lat="50.58114" lon="4.08097">
        <ele>94</ele>
        <time>2021-08-05T14:04:44Z</time>
      </trkpt>
      <trkpt lat="50.58094" lon="4.08142">
        <ele>91</ele>
        <time>2021-08-05T14:05:11Z</time>
      </trkpt>
      <trkpt lat="50.58114" lon="4.08183">
        <ele>90</ele>
        <time>2021-08-05T14:05:38Z</time>
      </trkpt>
      <trkpt lat="50.58129" lon="4.08193">
        <ele>90</ele>
        <time>2021-08-05T14:05:51Z</time>
      </trkpt>
      <trkpt lat="50.58157" lon="4.08213">
        <ele>90</ele>
        <time>2021-08-05T14:06:15Z</time>
      </trkpt>
      <trkpt lat="50.5817" lon="4.08214">
        <ele>90</ele>
        <time>2021-08-05T14:06:26Z</time>
      </trkpt>
      <trkpt lat="50.58177" lon="4.08234">
        <ele>89</ele>
        <time>2021-08-05T14:06:37Z</time>
      </trkpt>
      <trkpt lat="50.5818" lon="4.0824">
        <ele>89</ele>
        <time>2021-08-05T14:06:41Z</time>
      </trkpt>
      <trkpt lat="50.58182" lon="4.08247">
        <ele>89</ele>
        <time>2021-08-05T14:06:45Z</time>
      </trkpt>
      <trkpt lat="50.58169" lon="4.08251">
        <ele>88</ele>
        <time>2021-08-05T14:06:56Z</time>
      </trkpt>
      <trkpt lat="50.58152" lon="4.08262">
        <ele>87</ele>
        <time>2021-08-05T14:07:11Z</time>
      </trkpt>
      <trkpt lat="50.5814" lon="4.0827">
        <ele>87</ele>
        <time>2021-08-05T14:07:21Z</time>
      </trkpt>
      <trkpt lat="50.58117" lon="4.08293">
        <ele>86</ele>
        <time>2021-08-05T14:07:43Z</time>
      </trkpt>
      <trkpt lat="50.58107" lon="4.08308">
        <ele>86</ele>
        <time>2021-08-05T14:07:54Z</time>
      </trkpt>
      <trkpt lat="50.58066" lon="4.0838">
        <ele>87</ele>
        <time>2021-08-05T14:08:43Z</time>
      </trkpt>
      <trkpt lat="50.58086" lon="4.08447">
        <ele>89</ele>
        <time>2021-08-05T14:09:21Z</time>
      </trkpt>
      <trkpt lat="50.58098" lon="4.08495">
        <ele>90</ele>
        <time>2021-08-05T14:09:47Z</time>
      </trkpt>
      <trkpt lat="50.58115" lon="4.08612">
        <ele>90</ele>
        <time>2021-08-05T14:10:48Z</time>
      </trkpt>
      <trkpt lat="50.58107" lon="4.08612">
        <ele>91</ele>
        <time>2021-08-05T14:10:54Z</time>
      </trkpt>
      <trkpt lat="50.58018" lon="4.08582">
        <ele>91</ele>
        <time>2021-08-05T14:12:07Z</time>
      </trkpt>
      <trkpt lat="50.57994" lon="4.08566">
        <ele>91</ele>
        <time>2021-08-05T14:12:28Z</time>
      </trkpt>
      <trkpt lat="50.57975" lon="4.08548">
        <ele>92</ele>
        <time>2021-08-05T14:12:46Z</time>
      </trkpt>
      <trkpt lat="50.57929" lon="4.08478">
        <ele>92</ele>
        <time>2021-08-05T14:13:37Z</time>
      </trkpt>
      <trkpt lat="50.57923" lon="4.08472">
        <ele>92</ele>
        <time>2021-08-05T14:13:43Z</time>
      </trkpt>
      <trkpt lat="50.57913" lon="4.08464">
        <ele>92</ele>
        <time>2021-08-05T14:13:52Z</time>
      </trkpt>
      <trkpt lat="50.57912" lon="4.08431">
        <ele>92</ele>
        <time>2021-08-05T14:14:08Z</time>
      </trkpt>
      <trkpt lat="50.57911" lon="4.08405">
        <ele>92</ele>
        <time>2021-08-05T14:14:22Z</time>
      </trkpt>
      <trkpt lat="50.57911" lon="4.08316">
        <ele>89</ele>
        <time>2021-08-05T14:15:07Z</time>
      </trkpt>
      <trkpt lat="50.57904" lon="4.08165">
        <ele>85</ele>
        <time>2021-08-05T14:16:24Z</time>
      </trkpt>
      <trkpt lat="50.57905" lon="4.08132">
        <ele>86</ele>
        <time>2021-08-05T14:16:41Z</time>
      </trkpt>
      <trkpt lat="50.57906" lon="4.08099">
        <ele>86</ele>
        <time>2021-08-05T14:16:58Z</time>
      </trkpt>
      <trkpt lat="50.57902" lon="4.08099">
        <ele>86</ele>
        <time>2021-08-05T14:17:01Z</time>
      </trkpt>
      <trkpt lat="50.5782" lon="4.0809">
        <ele>86</ele>
        <time>2021-08-05T14:18:07Z</time>
      </trkpt>
      <trkpt lat="50.578" lon="4.08085">
        <ele>87</ele>
        <time>2021-08-05T14:18:23Z</time>
      </trkpt>
      <trkpt lat="50.57788" lon="4.08078">
        <ele>88</ele>
        <time>2021-08-05T14:18:33Z</time>
      </trkpt>
      <trkpt lat="50.57766" lon="4.08049">
        <ele>89</ele>
        <time>2021-08-05T14:18:56Z</time>
      </trkpt>
      <trkpt lat="50.57763" lon="4.08048">
        <ele>89</ele>
        <time>2021-08-05T14:18:58Z</time>
      </trkpt>
      <trkpt lat="50.57722" lon="4.07994">
        <ele>90</ele>
        <time>2021-08-05T14:19:41Z</time>
      </trkpt>
      <trkpt lat="50.577" lon="4.07961">
        <ele>90</ele>
        <time>2021-08-05T14:20:06Z</time>
      </trkpt>
      <trkpt lat="50.57675" lon="4.0792">
        <ele>90</ele>
        <time>2021-08-05T14:20:34Z</time>
      </trkpt>
      <trkpt lat="50.57634" lon="4.07856">
        <ele>89</ele>
        <time>2021-08-05T14:21:21Z</time>
      </trkpt>
      <trkpt lat="50.5759" lon="4.07781">
        <ele>88</ele>
        <time>2021-08-05T14:22:13Z</time>
      </trkpt>
      <trkpt lat="50.57583" lon="4.07764">
        <ele>87</ele>
        <time>2021-08-05T14:22:23Z</time>
      </trkpt>
      <trkpt lat="50.57573" lon="4.07736">
        <ele>87</ele>
        <time>2021-08-05T14:22:39Z</time>
      </trkpt>
      <trkpt lat="50.57566" lon="4.07714">
        <ele>87</ele>
        <time>2021-08-05T14:22:52Z</time>
      </trkpt>
      <trkpt lat="50.57561" lon="4.07691">
        <ele>86</ele>
        <time>2021-08-05T14:23:04Z</time>
      </trkpt>
      <trkpt lat="50.57563" lon="4.07551">
        <ele>84</ele>
        <time>2021-08-05T14:24:15Z</time>
      </trkpt>
      <trkpt lat="50.57583" lon="4.07553">
        <ele>83</ele>
        <time>2021-08-05T14:24:31Z</time>
      </trkpt>
      <trkpt lat="50.57618" lon="4.07557">
        <ele>82</ele>
        <time>2021-08-05T14:24:59Z</time>
      </trkpt>
      <trkpt lat="50.57624" lon="4.07555">
        <ele>82</ele>
        <time>2021-08-05T14:25:04Z</time>
      </trkpt>
      <trkpt lat="50.57626" lon="4.07563">
        <ele>82</ele>
        <time>2021-08-05T14:25:09Z</time>
      </trkpt>
      <trkpt lat="50.57653" lon="4.07616">
        <ele>82</ele>
        <time>2021-08-05T14:25:43Z</time>
      </trkpt>
      <trkpt lat="50.57666" lon="4.0764">
        <ele>82</ele>
        <time>2021-08-05T14:25:59Z</time>
      </trkpt>
      <trkpt lat="50.5768" lon="4.07651">
        <ele>82</ele>
        <time>2021-08-05T14:26:12Z</time>
      </trkpt>
      <trkpt lat="50.57688" lon="4.07657">
        <ele>83</ele>
        <time>2021-08-05T14:26:19Z</time>
      </trkpt>
      <trkpt lat="50.57698" lon="4.07659">
        <ele>83</ele>
        <time>2021-08-05T14:26:27Z</time>
      </trkpt>
      <trkpt lat="50.57703" lon="4.07658">
        <ele>83</ele>
        <time>2021-08-05T14:26:31Z</time>
      </trkpt>
      <trkpt lat="50.57703" lon="4.07663">
        <ele>83</ele>
        <time>2021-08-05T14:26:34Z</time>
      </trkpt>
      <trkpt lat="50.57699" lon="4.07674">
        <ele>83</ele>
        <time>2021-08-05T14:26:40Z</time>
      </trkpt>
      <trkpt lat="50.577" lon="4.07682">
        <ele>84</ele>
        <time>2021-08-05T14:26:44Z</time>
      </trkpt>
      <trkpt lat="50.57703" lon="4.07692">
        <ele>84</ele>
        <time>2021-08-05T14:26:50Z</time>
      </trkpt>
      <trkpt lat="50.57708" lon="4.07687">
        <ele>84</ele>
        <time>2021-08-05T14:26:55Z</time>
      </trkpt>
      <trkpt lat="50.57716" lon="4.07683">
        <ele>84</ele>
        <time>2021-08-05T14:27:01Z</time>
      </trkpt>
      <trkpt lat="50.57721" lon="4.07671">
        <ele>84</ele>
        <time>2021-08-05T14:27:09Z</time>
      </trkpt>
      <trkpt lat="50.57727" lon="4.07665">
        <ele>84</ele>
        <time>2021-08-05T14:27:14Z</time>
      </trkpt>
      <trkpt lat="50.57745" lon="4.07646">
        <ele>85</ele>
        <time>2021-08-05T14:27:32Z</time>
      </trkpt>
      <trkpt lat="50.57749" lon="4.07649">
        <ele>85</ele>
        <time>2021-08-05T14:27:35Z</time>
      </trkpt>
      <trkpt lat="50.57759" lon="4.0767">
        <ele>86</ele>
        <time>2021-08-05T14:27:49Z</time>
      </trkpt>
      <trkpt lat="50.5778" lon="4.07652">
        <ele>86</ele>
        <time>2021-08-05T14:28:08Z</time>
      </trkpt>
      <trkpt lat="50.578" lon="4.07624">
        <ele>87</ele>
        <time>2021-08-05T14:28:29Z</time>
      </trkpt>
      <trkpt lat="50.5782" lon="4.07601">
        <ele>88</ele>
        <time>2021-08-05T14:28:49Z</time>
      </trkpt>
      <trkpt lat="50.57823" lon="4.07593">
        <ele>88</ele>
        <time>2021-08-05T14:28:54Z</time>
      </trkpt>
      <trkpt lat="50.57851" lon="4.07557">
        <ele>88</ele>
        <time>2021-08-05T14:29:23Z</time>
      </trkpt>
      <trkpt lat="50.57874" lon="4.07528">
        <ele>88</ele>
        <time>2021-08-05T14:29:46Z</time>
      </trkpt>
      <trkpt lat="50.57864" lon="4.07503">
        <ele>88</ele>
        <time>2021-08-05T14:30:01Z</time>
      </trkpt>
      <trkpt lat="50.57924" lon="4.07395">
        <ele>89</ele>
        <time>2021-08-05T14:31:14Z</time>
      </trkpt>
      <trkpt lat="50.57917" lon="4.07386">
        <ele>89</ele>
        <time>2021-08-05T14:31:21Z</time>
      </trkpt>
      <trkpt lat="50.57927" lon="4.07383">
        <ele>89</ele>
        <time>2021-08-05T14:31:30Z</time>
      </trkpt>
      <trkpt lat="50.57934" lon="4.07384">
        <ele>89</ele>
        <time>2021-08-05T14:31:35Z</time>
      </trkpt>
      <trkpt lat="50.5794" lon="4.07387">
        <ele>89</ele>
        <time>2021-08-05T14:31:40Z</time>
      </trkpt>
      <trkpt lat="50.57993" lon="4.07384">
        <ele>88</ele>
        <time>2021-08-05T14:32:23Z</time>
      </trkpt>
      <trkpt lat="50.5799" lon="4.07355">
        <ele>89</ele>
        <time>2021-08-05T14:32:38Z</time>
      </trkpt>
      <trkpt lat="50.58024" lon="4.07342">
        <ele>89</ele>
        <time>2021-08-05T14:33:06Z</time>
      </trkpt>
      <trkpt lat="50.58046" lon="4.07327">
        <ele>88</ele>
        <time>2021-08-05T14:33:25Z</time>
      </trkpt>
      <trkpt lat="50.58094" lon="4.07255">
        <ele>88</ele>
        <time>2021-08-05T14:34:18Z</time>
      </trkpt>
      <trkpt lat="50.5811" lon="4.07224">
        <ele>87</ele>
        <time>2021-08-05T14:34:38Z</time>
      </trkpt>
      <trkpt lat="50.5812" lon="4.07199">
        <ele>86</ele>
        <time>2021-08-05T14:34:53Z</time>
      </trkpt>
      <trkpt lat="50.58132" lon="4.07156">
        <ele>85</ele>
        <time>2021-08-05T14:35:17Z</time>
      </trkpt>
      <trkpt lat="50.58146" lon="4.07112">
        <ele>83</ele>
        <time>2021-08-05T14:35:42Z</time>
      </trkpt>
      <trkpt lat="50.58155" lon="4.07078">
        <ele>82</ele>
        <time>2021-08-05T14:36:01Z</time>
      </trkpt>
      <trkpt lat="50.58159" lon="4.07054">
        <ele>80</ele>
        <time>2021-08-05T14:36:14Z</time>
      </trkpt>
      <trkpt lat="50.5816" lon="4.0704">
        <ele>80</ele>
        <time>2021-08-05T14:36:21Z</time>
      </trkpt>
      <trkpt lat="50.58171" lon="4.06971">
        <ele>78</ele>
        <time>2021-08-05T14:36:57Z</time>
      </trkpt>
      <trkpt lat="50.58172" lon="4.06957">
        <ele>78</ele>
        <time>2021-08-05T14:37:04Z</time>
      </trkpt>
      <trkpt lat="50.58168" lon="4.06902">
        <ele>78</ele>
        <time>2021-08-05T14:37:32Z</time>
      </trkpt>
      <trkpt lat="50.58155" lon="4.06852">
        <ele>80</ele>
        <time>2021-08-05T14:38:00Z</time>
      </trkpt>
      <trkpt lat="50.58148" lon="4.06842">
        <ele>80</ele>
        <time>2021-08-05T14:38:07Z</time>
      </trkpt>
      <trkpt lat="50.58173" lon="4.06816">
        <ele>80</ele>
        <time>2021-08-05T14:38:31Z</time>
      </trkpt>
      <trkpt lat="50.5823" lon="4.06763">
        <ele>81</ele>
        <time>2021-08-05T14:39:24Z</time>
      </trkpt>
      <trkpt lat="50.58242" lon="4.06782">
        <ele>81</ele>
        <time>2021-08-05T14:39:38Z</time>
      </trkpt>
      <trkpt lat="50.58253" lon="4.06798">
        <ele>80</ele>
        <time>2021-08-05T14:39:50Z</time>
      </trkpt>
      <trkpt lat="50.58274" lon="4.06823">
        <ele>80</ele>
        <time>2021-08-05T14:40:11Z</time>
      </trkpt>
      <trkpt lat="50.58321" lon="4.06857">
        <ele>81</ele>
        <time>2021-08-05T14:40:52Z</time>
      </trkpt>
      <trkpt lat="50.58342" lon="4.06872">
        <ele>80</ele>
        <time>2021-08-05T14:41:11Z</time>
      </trkpt>
      <trkpt lat="50.58361" lon="4.06887">
        <ele>80</ele>
        <time>2021-08-05T14:41:28Z</time>
      </trkpt>
      <trkpt lat="50.58388" lon="4.06992">
        <ele>78</ele>
        <time>2021-08-05T14:42:25Z</time>
      </trkpt>
      <trkpt lat="50.58402" lon="4.07047">
        <ele>78</ele>
        <time>2021-08-05T14:42:55Z</time>
      </trkpt>
      <trkpt lat="50.58414" lon="4.07044">
        <ele>78</ele>
        <time>2021-08-05T14:43:05Z</time>
      </trkpt>
      <trkpt lat="50.5849" lon="4.07038">
        <ele>77</ele>
        <time>2021-08-05T14:44:06Z</time>
      </trkpt>
      <trkpt lat="50.58508" lon="4.07037">
        <ele>77</ele>
        <time>2021-08-05T14:44:21Z</time>
      </trkpt>
      <trkpt lat="50.5856" lon="4.07029">
        <ele>77</ele>
        <time>2021-08-05T14:45:02Z</time>
      </trkpt>
      <trkpt lat="50.58606" lon="4.07019">
        <ele>77</ele>
        <time>2021-08-05T14:45:40Z</time>
      </trkpt>
    </trkseg>
  </trk>
</gpx>